sensor_id;sensor_type;location;lat;lon;timestamp;P1;durP1;ratioP1;P2;durP2;ratioP2
5137;SDS011;53959;53.626;11.410;2022-10-16T00:00:44;5.50;;;5.07;;
5137;SDS011;53959;53.626;11.410;2022-10-16T00:03:10;5.50;;;4.97;;
5137;SDS011;53959;53.626;11.410;2022-10-16T00:05:39;6.60;;;5.93;;
5137;SDS011;53959;53.626;11.410;2022-10-16T00:08:07;9.07;;;5.37;;
5137;SDS011;53959;53.626;11.410;2022-10-16T00:10:34;5.43;;;4.97;;
5137;SDS011;53959;53.626;11.410;2022-10-16T00:13:00;6.33;;;5.80;;
5137;SDS011;53959;53.626;11.410;2022-10-16T00:15:25;5.70;;;5.20;;
5137;SDS011;53959;53.626;11.410;2022-10-16T00:17:51;7.70;;;6.40;;
5137;SDS011;53959;53.626;11.410;2022-10-16T00:20:17;7.93;;;6.73;;
5137;SDS011;53959;53.626;11.410;2022-10-16T00:22:42;6.73;;;6.13;;
5137;SDS011;53959;53.626;11.410;2022-10-16T00:25:08;8.50;;;6.60;;
5137;SDS011;53959;53.626;11.410;2022-10-16T00:27:33;6.73;;;5.97;;
5137;SDS011;53959;53.626;11.410;2022-10-16T00:29:59;6.30;;;5.80;;
5137;SDS011;53959;53.626;11.410;2022-10-16T00:32:25;6.50;;;5.90;;
5137;SDS011;53959;53.626;11.410;2022-10-16T00:34:50;11.13;;;6.50;;
5137;SDS011;53959;53.626;11.410;2022-10-16T00:37:16;15.50;;;6.60;;
5137;SDS011;53959;53.626;11.410;2022-10-16T00:39:41;7.00;;;6.40;;
5137;SDS011;53959;53.626;11.410;2022-10-16T00:42:09;6.00;;;5.40;;
5137;SDS011;53959;53.626;11.410;2022-10-16T00:47:14;6.00;;;5.40;;
5137;SDS011;53959;53.626;11.410;2022-10-16T00:49:44;6.13;;;5.60;;
5137;SDS011;53959;53.626;11.410;2022-10-16T00:52:12;6.27;;;5.60;;
5137;SDS011;53959;53.626;11.410;2022-10-16T00:54:39;8.20;;;5.40;;
5137;SDS011;53959;53.626;11.410;2022-10-16T00:57:05;6.00;;;5.20;;
5137;SDS011;53959;53.626;11.410;2022-10-16T00:59:33;8.60;;;5.90;;
5137;SDS011;53959;53.626;11.410;2022-10-16T01:02:01;7.60;;;5.87;;
5137;SDS011;53959;53.626;11.410;2022-10-16T01:04:27;7.50;;;5.97;;
5137;SDS011;53959;53.626;11.410;2022-10-16T01:09:47;7.30;;;5.90;;
5137;SDS011;53959;53.626;11.410;2022-10-16T01:12:21;16.50;;;6.33;;
5137;SDS011;53959;53.626;11.410;2022-10-16T01:15:01;6.57;;;5.87;;
5137;SDS011;53959;53.626;11.410;2022-10-16T01:17:57;8.13;;;5.80;;
5137;SDS011;53959;53.626;11.410;2022-10-16T01:20:44;9.80;;;6.00;;
5137;SDS011;53959;53.626;11.410;2022-10-16T01:23:32;13.90;;;5.60;;
5137;SDS011;53959;53.626;11.410;2022-10-16T01:31:59;10.10;;;7.27;;
5137;SDS011;53959;53.626;11.410;2022-10-16T01:34:32;7.17;;;6.47;;
5137;SDS011;53959;53.626;11.410;2022-10-16T01:42:51;7.73;;;6.40;;
5137;SDS011;53959;53.626;11.410;2022-10-16T01:45:20;11.00;;;7.17;;
5137;SDS011;53959;53.626;11.410;2022-10-16T01:47:46;14.30;;;6.70;;
5137;SDS011;53959;53.626;11.410;2022-10-16T01:50:14;19.00;;;7.50;;
5137;SDS011;53959;53.626;11.410;2022-10-16T01:52:43;8.00;;;6.63;;
5137;SDS011;53959;53.626;11.410;2022-10-16T01:55:12;9.17;;;7.50;;
5137;SDS011;53959;53.626;11.410;2022-10-16T01:57:41;9.27;;;7.53;;
5137;SDS011;53959;53.626;11.410;2022-10-16T02:00:11;9.50;;;7.73;;
5137;SDS011;53959;53.626;11.410;2022-10-16T02:02:39;8.30;;;6.80;;
5137;SDS011;53959;53.626;11.410;2022-10-16T02:05:14;8.77;;;7.00;;
5137;SDS011;53959;53.626;11.410;2022-10-16T02:07:45;10.43;;;7.97;;
5137;SDS011;53959;53.626;11.410;2022-10-16T02:10:10;15.57;;;8.87;;
5137;SDS011;53959;53.626;11.410;2022-10-16T02:12:36;8.57;;;7.47;;
5137;SDS011;53959;53.626;11.410;2022-10-16T02:15:06;9.13;;;8.23;;
5137;SDS011;53959;53.626;11.410;2022-10-16T02:17:32;14.80;;;8.43;;
5137;SDS011;53959;53.626;11.410;2022-10-16T02:19:57;11.30;;;8.07;;
5137;SDS011;53959;53.626;11.410;2022-10-16T02:22:30;11.10;;;7.50;;
5137;SDS011;53959;53.626;11.410;2022-10-16T02:25:28;10.67;;;8.93;;
5137;SDS011;53959;53.626;11.410;2022-10-16T02:30:41;23.27;;;10.30;;
5137;SDS011;53959;53.626;11.410;2022-10-16T02:33:10;14.20;;;9.70;;
5137;SDS011;53959;53.626;11.410;2022-10-16T02:35:38;14.37;;;9.20;;
5137;SDS011;53959;53.626;11.410;2022-10-16T02:38:05;14.13;;;10.83;;
5137;SDS011;53959;53.626;11.410;2022-10-16T02:40:32;12.30;;;10.20;;
5137;SDS011;53959;53.626;11.410;2022-10-16T02:42:58;10.53;;;9.43;;
5137;SDS011;53959;53.626;11.410;2022-10-16T02:45:23;12.60;;;9.50;;
5137;SDS011;53959;53.626;11.410;2022-10-16T02:47:49;15.57;;;9.70;;
5137;SDS011;53959;53.626;11.410;2022-10-16T02:50:15;12.90;;;9.27;;
5137;SDS011;53959;53.626;11.410;2022-10-16T02:52:41;12.70;;;8.77;;
5137;SDS011;53959;53.626;11.410;2022-10-16T02:55:06;13.63;;;8.23;;
5137;SDS011;53959;53.626;11.410;2022-10-16T02:57:32;12.37;;;8.20;;
5137;SDS011;53959;53.626;11.410;2022-10-16T02:59:58;9.73;;;8.47;;
5137;SDS011;53959;53.626;11.410;2022-10-16T03:02:23;12.00;;;7.17;;
5137;SDS011;53959;53.626;11.410;2022-10-16T03:04:49;11.93;;;6.57;;
5137;SDS011;53959;53.626;11.410;2022-10-16T03:07:14;6.80;;;6.20;;
5137;SDS011;53959;53.626;11.410;2022-10-16T03:09:40;13.27;;;6.97;;
5137;SDS011;53959;53.626;11.410;2022-10-16T03:12:06;9.17;;;6.90;;
5137;SDS011;53959;53.626;11.410;2022-10-16T03:14:31;14.90;;;5.30;;
5137;SDS011;53959;53.626;11.410;2022-10-16T03:16:57;6.10;;;4.90;;
5137;SDS011;53959;53.626;11.410;2022-10-16T03:19:23;4.60;;;4.30;;
5137;SDS011;53959;53.626;11.410;2022-10-16T03:21:48;7.93;;;4.60;;
5137;SDS011;53959;53.626;11.410;2022-10-16T03:24:14;11.07;;;4.10;;
5137;SDS011;53959;53.626;11.410;2022-10-16T03:26:39;3.60;;;3.30;;
5137;SDS011;53959;53.626;11.410;2022-10-16T03:29:05;3.80;;;3.60;;
5137;SDS011;53959;53.626;11.410;2022-10-16T03:31:31;4.20;;;3.70;;
5137;SDS011;53959;53.626;11.410;2022-10-16T03:33:57;3.47;;;3.23;;
5137;SDS011;53959;53.626;11.410;2022-10-16T03:36:22;3.63;;;3.33;;
5137;SDS011;53959;53.626;11.410;2022-10-16T03:38:48;12.60;;;3.40;;
5137;SDS011;53959;53.626;11.410;2022-10-16T03:41:13;3.90;;;3.60;;
5137;SDS011;53959;53.626;11.410;2022-10-16T03:43:39;7.00;;;2.87;;
5137;SDS011;53959;53.626;11.410;2022-10-16T03:46:05;5.40;;;3.60;;
5137;SDS011;53959;53.626;11.410;2022-10-16T03:48:30;3.97;;;3.50;;
5137;SDS011;53959;53.626;11.410;2022-10-16T03:50:57;3.90;;;3.60;;
5137;SDS011;53959;53.626;11.410;2022-10-16T03:53:23;4.47;;;4.07;;
5137;SDS011;53959;53.626;11.410;2022-10-16T03:55:48;6.80;;;3.50;;
5137;SDS011;53959;53.626;11.410;2022-10-16T03:58:14;4.60;;;3.60;;
5137;SDS011;53959;53.626;11.410;2022-10-16T04:00:44;8.23;;;3.93;;
5137;SDS011;53959;53.626;11.410;2022-10-16T04:03:10;17.13;;;3.90;;
5137;SDS011;53959;53.626;11.410;2022-10-16T04:05:35;12.47;;;3.23;;
5137;SDS011;53959;53.626;11.410;2022-10-16T04:08:01;4.87;;;2.50;;
5137;SDS011;53959;53.626;11.410;2022-10-16T04:10:27;6.40;;;2.73;;
5137;SDS011;53959;53.626;11.410;2022-10-16T04:12:53;9.50;;;3.60;;
5137;SDS011;53959;53.626;11.410;2022-10-16T04:15:20;2.57;;;2.30;;
5137;SDS011;53959;53.626;11.410;2022-10-16T04:17:46;4.30;;;3.00;;
5137;SDS011;53959;53.626;11.410;2022-10-16T04:20:12;3.00;;;2.90;;
5137;SDS011;53959;53.626;11.410;2022-10-16T04:22:37;8.77;;;2.70;;
5137;SDS011;53959;53.626;11.410;2022-10-16T04:25:04;3.20;;;3.00;;
5137;SDS011;53959;53.626;11.410;2022-10-16T04:27:29;4.33;;;2.37;;
5137;SDS011;53959;53.626;11.410;2022-10-16T04:29:56;5.73;;;2.30;;
5137;SDS011;53959;53.626;11.410;2022-10-16T04:32:22;10.90;;;3.30;;
5137;SDS011;53959;53.626;11.410;2022-10-16T04:34:47;5.60;;;2.27;;
5137;SDS011;53959;53.626;11.410;2022-10-16T04:37:13;2.43;;;2.23;;
5137;SDS011;53959;53.626;11.410;2022-10-16T04:39:38;6.33;;;2.60;;
5137;SDS011;53959;53.626;11.410;2022-10-16T04:42:04;8.83;;;2.37;;
5137;SDS011;53959;53.626;11.410;2022-10-16T04:44:29;2.23;;;1.90;;
5137;SDS011;53959;53.626;11.410;2022-10-16T04:46:55;5.47;;;2.00;;
5137;SDS011;53959;53.626;11.410;2022-10-16T04:49:20;3.80;;;2.13;;
5137;SDS011;53959;53.626;11.410;2022-10-16T04:51:46;2.33;;;2.10;;
5137;SDS011;53959;53.626;11.410;2022-10-16T04:54:12;4.77;;;2.50;;
5137;SDS011;53959;53.626;11.410;2022-10-16T04:56:37;3.60;;;2.63;;
5137;SDS011;53959;53.626;11.410;2022-10-16T04:59:11;4.93;;;1.90;;
5137;SDS011;53959;53.626;11.410;2022-10-16T05:01:37;2.77;;;2.07;;
5137;SDS011;53959;53.626;11.410;2022-10-16T05:04:02;5.57;;;2.00;;
5137;SDS011;53959;53.626;11.410;2022-10-16T05:06:28;5.40;;;2.33;;
5137;SDS011;53959;53.626;11.410;2022-10-16T05:08:53;10.73;;;2.10;;
5137;SDS011;53959;53.626;11.410;2022-10-16T05:11:19;3.80;;;2.43;;
5137;SDS011;53959;53.626;11.410;2022-10-16T05:13:44;3.80;;;2.10;;
5137;SDS011;53959;53.626;11.410;2022-10-16T05:16:10;6.37;;;2.60;;
5137;SDS011;53959;53.626;11.410;2022-10-16T05:18:36;6.17;;;1.80;;
5137;SDS011;53959;53.626;11.410;2022-10-16T05:21:01;3.43;;;2.00;;
5137;SDS011;53959;53.626;11.410;2022-10-16T05:23:27;3.00;;;2.00;;
5137;SDS011;53959;53.626;11.410;2022-10-16T05:25:53;4.47;;;1.93;;
5137;SDS011;53959;53.626;11.410;2022-10-16T05:28:29;3.33;;;1.97;;
5137;SDS011;53959;53.626;11.410;2022-10-16T05:30:56;7.70;;;2.00;;
5137;SDS011;53959;53.626;11.410;2022-10-16T05:33:22;6.47;;;2.07;;
5137;SDS011;53959;53.626;11.410;2022-10-16T05:35:49;2.97;;;2.03;;
5137;SDS011;53959;53.626;11.410;2022-10-16T05:38:15;5.17;;;2.17;;
5137;SDS011;53959;53.626;11.410;2022-10-16T05:40:42;10.13;;;1.90;;
5137;SDS011;53959;53.626;11.410;2022-10-16T05:43:07;5.00;;;2.03;;
5137;SDS011;53959;53.626;11.410;2022-10-16T05:45:33;5.83;;;2.23;;
5137;SDS011;53959;53.626;11.410;2022-10-16T05:47:59;8.03;;;2.60;;
5137;SDS011;53959;53.626;11.410;2022-10-16T05:50:25;3.00;;;1.60;;
5137;SDS011;53959;53.626;11.410;2022-10-16T05:52:50;3.53;;;2.17;;
5137;SDS011;53959;53.626;11.410;2022-10-16T05:55:16;5.13;;;1.90;;
5137;SDS011;53959;53.626;11.410;2022-10-16T05:57:41;3.37;;;2.50;;
5137;SDS011;53959;53.626;11.410;2022-10-16T06:00:07;8.50;;;2.27;;
5137;SDS011;53959;53.626;11.410;2022-10-16T06:02:33;4.73;;;2.60;;
5137;SDS011;53959;53.626;11.410;2022-10-16T06:04:59;7.83;;;2.67;;
5137;SDS011;53959;53.626;11.410;2022-10-16T06:07:24;3.97;;;2.40;;
5137;SDS011;53959;53.626;11.410;2022-10-16T06:09:50;13.80;;;2.80;;
5137;SDS011;53959;53.626;11.410;2022-10-16T06:12:17;3.70;;;3.30;;
5137;SDS011;53959;53.626;11.410;2022-10-16T06:14:44;2.63;;;2.40;;
5137;SDS011;53959;53.626;11.410;2022-10-16T06:17:11;3.90;;;2.10;;
5137;SDS011;53959;53.626;11.410;2022-10-16T06:19:38;3.80;;;3.30;;
5137;SDS011;53959;53.626;11.410;2022-10-16T06:22:03;21.80;;;9.83;;
5137;SDS011;53959;53.626;11.410;2022-10-16T06:24:29;2.87;;;2.77;;
5137;SDS011;53959;53.626;11.410;2022-10-16T06:26:54;8.73;;;4.03;;
5137;SDS011;53959;53.626;11.410;2022-10-16T06:29:20;7.07;;;2.83;;
5137;SDS011;53959;53.626;11.410;2022-10-16T06:31:46;14.47;;;3.37;;
5137;SDS011;53959;53.626;11.410;2022-10-16T06:34:11;5.00;;;2.87;;
5137;SDS011;53959;53.626;11.410;2022-10-16T06:36:37;5.63;;;2.80;;
5137;SDS011;53959;53.626;11.410;2022-10-16T06:39:03;9.53;;;2.20;;
5137;SDS011;53959;53.626;11.410;2022-10-16T06:41:30;9.17;;;3.00;;
5137;SDS011;53959;53.626;11.410;2022-10-16T06:43:56;8.97;;;3.97;;
5137;SDS011;53959;53.626;11.410;2022-10-16T06:46:22;3.93;;;2.27;;
5137;SDS011;53959;53.626;11.410;2022-10-16T06:48:48;10.07;;;3.07;;
5137;SDS011;53959;53.626;11.410;2022-10-16T06:51:15;10.20;;;2.50;;
5137;SDS011;53959;53.626;11.410;2022-10-16T06:53:43;2.80;;;2.37;;
5137;SDS011;53959;53.626;11.410;2022-10-16T06:56:21;7.90;;;2.40;;
5137;SDS011;53959;53.626;11.410;2022-10-16T06:58:48;1.87;;;1.60;;
5137;SDS011;53959;53.626;11.410;2022-10-16T07:01:15;2.90;;;2.60;;
5137;SDS011;53959;53.626;11.410;2022-10-16T07:03:43;4.70;;;2.37;;
5137;SDS011;53959;53.626;11.410;2022-10-16T07:06:10;5.40;;;2.57;;
5137;SDS011;53959;53.626;11.410;2022-10-16T07:08:39;5.20;;;2.40;;
5137;SDS011;53959;53.626;11.410;2022-10-16T07:11:07;7.77;;;2.67;;
5137;SDS011;53959;53.626;11.410;2022-10-16T07:13:34;2.70;;;2.27;;
5137;SDS011;53959;53.626;11.410;2022-10-16T07:16:14;4.87;;;2.73;;
5137;SDS011;53959;53.626;11.410;2022-10-16T07:18:41;3.60;;;2.40;;
5137;SDS011;53959;53.626;11.410;2022-10-16T07:23:36;3.23;;;2.50;;
5137;SDS011;53959;53.626;11.410;2022-10-16T07:26:03;11.50;;;2.70;;
5137;SDS011;53959;53.626;11.410;2022-10-16T07:28:29;15.00;;;2.70;;
5137;SDS011;53959;53.626;11.410;2022-10-16T07:30:55;2.10;;;1.83;;
5137;SDS011;53959;53.626;11.410;2022-10-16T07:33:21;2.33;;;2.13;;
5137;SDS011;53959;53.626;11.410;2022-10-16T07:35:47;5.23;;;2.83;;
5137;SDS011;53959;53.626;11.410;2022-10-16T07:38:16;3.30;;;2.57;;
5137;SDS011;53959;53.626;11.410;2022-10-16T07:43:14;12.70;;;2.20;;
5137;SDS011;53959;53.626;11.410;2022-10-16T07:45:47;17.63;;;2.10;;
5137;SDS011;53959;53.626;11.410;2022-10-16T07:48:14;6.03;;;2.43;;
5137;SDS011;53959;53.626;11.410;2022-10-16T07:50:40;7.83;;;2.20;;
5137;SDS011;53959;53.626;11.410;2022-10-16T07:53:06;2.73;;;2.40;;
5137;SDS011;53959;53.626;11.410;2022-10-16T07:55:31;7.57;;;2.50;;
5137;SDS011;53959;53.626;11.410;2022-10-16T07:57:57;2.30;;;1.93;;
5137;SDS011;53959;53.626;11.410;2022-10-16T08:00:22;3.87;;;1.90;;
5137;SDS011;53959;53.626;11.410;2022-10-16T08:02:48;9.30;;;2.90;;
5137;SDS011;53959;53.626;11.410;2022-10-16T08:05:13;8.03;;;2.90;;
5137;SDS011;53959;53.626;11.410;2022-10-16T08:07:39;5.40;;;2.40;;
5137;SDS011;53959;53.626;11.410;2022-10-16T08:10:05;4.30;;;1.93;;
5137;SDS011;53959;53.626;11.410;2022-10-16T08:12:30;3.57;;;2.30;;
5137;SDS011;53959;53.626;11.410;2022-10-16T08:14:56;2.30;;;2.10;;
5137;SDS011;53959;53.626;11.410;2022-10-16T08:17:21;6.50;;;2.50;;
5137;SDS011;53959;53.626;11.410;2022-10-16T08:19:47;9.27;;;2.53;;
5137;SDS011;53959;53.626;11.410;2022-10-16T08:22:13;4.77;;;2.53;;
5137;SDS011;53959;53.626;11.410;2022-10-16T08:24:39;6.13;;;2.37;;
5137;SDS011;53959;53.626;11.410;2022-10-16T08:27:05;5.47;;;2.67;;
5137;SDS011;53959;53.626;11.410;2022-10-16T08:29:31;6.30;;;2.70;;
5137;SDS011;53959;53.626;11.410;2022-10-16T08:31:57;5.70;;;3.20;;
5137;SDS011;53959;53.626;11.410;2022-10-16T08:34:23;7.60;;;2.83;;
5137;SDS011;53959;53.626;11.410;2022-10-16T08:36:49;6.77;;;3.23;;
5137;SDS011;53959;53.626;11.410;2022-10-16T08:39:15;5.87;;;2.83;;
5137;SDS011;53959;53.626;11.410;2022-10-16T08:41:53;6.03;;;2.90;;
5137;SDS011;53959;53.626;11.410;2022-10-16T08:44:29;5.70;;;2.40;;
5137;SDS011;53959;53.626;11.410;2022-10-16T08:49:47;3.77;;;2.70;;
5137;SDS011;53959;53.626;11.410;2022-10-16T08:52:25;2.43;;;2.30;;
5137;SDS011;53959;53.626;11.410;2022-10-16T08:54:55;10.97;;;2.70;;
5137;SDS011;53959;53.626;11.410;2022-10-16T08:57:22;5.50;;;2.40;;
5137;SDS011;53959;53.626;11.410;2022-10-16T08:59:49;4.23;;;2.90;;
5137;SDS011;53959;53.626;11.410;2022-10-16T09:02:35;2.90;;;2.27;;
5137;SDS011;53959;53.626;11.410;2022-10-16T09:05:30;3.17;;;2.80;;
5137;SDS011;53959;53.626;11.410;2022-10-16T09:08:18;6.30;;;2.67;;
5137;SDS011;53959;53.626;11.410;2022-10-16T09:11:03;2.90;;;2.60;;
5137;SDS011;53959;53.626;11.410;2022-10-16T09:13:36;4.30;;;2.40;;
5137;SDS011;53959;53.626;11.410;2022-10-16T09:18:58;7.07;;;2.10;;
5137;SDS011;53959;53.626;11.410;2022-10-16T09:21:41;8.60;;;2.50;;
5137;SDS011;53959;53.626;11.410;2022-10-16T09:24:13;7.33;;;2.67;;
5137;SDS011;53959;53.626;11.410;2022-10-16T09:26:43;4.33;;;2.20;;
5137;SDS011;53959;53.626;11.410;2022-10-16T09:29:11;3.63;;;2.43;;
5137;SDS011;53959;53.626;11.410;2022-10-16T09:31:38;12.70;;;2.17;;
5137;SDS011;53959;53.626;11.410;2022-10-16T09:34:04;19.63;;;2.30;;
5137;SDS011;53959;53.626;11.410;2022-10-16T09:36:35;3.67;;;2.23;;
5137;SDS011;53959;53.626;11.410;2022-10-16T09:39:08;2.23;;;1.83;;
5137;SDS011;53959;53.626;11.410;2022-10-16T09:41:38;2.73;;;2.53;;
5137;SDS011;53959;53.626;11.410;2022-10-16T09:44:16;2.20;;;2.03;;
5137;SDS011;53959;53.626;11.410;2022-10-16T09:46:45;6.10;;;2.30;;
5137;SDS011;53959;53.626;11.410;2022-10-16T09:49:21;2.03;;;1.70;;
5137;SDS011;53959;53.626;11.410;2022-10-16T09:51:48;7.17;;;1.80;;
5137;SDS011;53959;53.626;11.410;2022-10-16T09:54:18;7.63;;;2.00;;
5137;SDS011;53959;53.626;11.410;2022-10-16T09:56:45;2.40;;;1.30;;
5137;SDS011;53959;53.626;11.410;2022-10-16T09:59:17;2.53;;;1.47;;
5137;SDS011;53959;53.626;11.410;2022-10-16T10:01:51;8.10;;;1.67;;
5137;SDS011;53959;53.626;11.410;2022-10-16T10:04:21;3.50;;;1.27;;
5137;SDS011;53959;53.626;11.410;2022-10-16T10:06:49;11.53;;;1.50;;
5137;SDS011;53959;53.626;11.410;2022-10-16T10:09:21;3.67;;;1.30;;
5137;SDS011;53959;53.626;11.410;2022-10-16T10:17:17;3.77;;;1.27;;
5137;SDS011;53959;53.626;11.410;2022-10-16T10:22:40;8.10;;;3.37;;
5137;SDS011;53959;53.626;11.410;2022-10-16T10:25:14;5.30;;;1.70;;
5137;SDS011;53959;53.626;11.410;2022-10-16T10:28:06;4.10;;;1.30;;
5137;SDS011;53959;53.626;11.410;2022-10-16T10:38:32;2.67;;;1.23;;
5137;SDS011;53959;53.626;11.410;2022-10-16T10:41:16;1.23;;;1.13;;
5137;SDS011;53959;53.626;11.410;2022-10-16T10:46:51;3.50;;;1.20;;
5137;SDS011;53959;53.626;11.410;2022-10-16T10:54:59;0.73;;;0.73;;
5137;SDS011;53959;53.626;11.410;2022-10-16T11:00:30;0.90;;;0.63;;
5137;SDS011;53959;53.626;11.410;2022-10-16T11:06:05;1.53;;;0.80;;
5137;SDS011;53959;53.626;11.410;2022-10-16T11:08:45;2.80;;;1.07;;
5137;SDS011;53959;53.626;11.410;2022-10-16T11:11:30;2.13;;;1.27;;
5137;SDS011;53959;53.626;11.410;2022-10-16T11:14:06;2.60;;;0.93;;
5137;SDS011;53959;53.626;11.410;2022-10-16T11:16:43;3.13;;;1.10;;
5137;SDS011;53959;53.626;11.410;2022-10-16T11:22:13;0.87;;;0.80;;
5137;SDS011;53959;53.626;11.410;2022-10-16T11:25:11;5.00;;;1.30;;
5137;SDS011;53959;53.626;11.410;2022-10-16T11:27:49;7.37;;;1.10;;
5137;SDS011;53959;53.626;11.410;2022-10-16T11:30:27;2.67;;;0.53;;
5137;SDS011;53959;53.626;11.410;2022-10-16T11:33:04;2.83;;;0.70;;
5137;SDS011;53959;53.626;11.410;2022-10-16T11:35:47;3.90;;;1.10;;
5137;SDS011;53959;53.626;11.410;2022-10-16T11:41:18;1.17;;;0.60;;
5137;SDS011;53959;53.626;11.410;2022-10-16T11:43:52;0.77;;;0.77;;
5137;SDS011;53959;53.626;11.410;2022-10-16T11:46:30;2.33;;;1.60;;
5137;SDS011;53959;53.626;11.410;2022-10-16T11:49:20;1.80;;;1.20;;
5137;SDS011;53959;53.626;11.410;2022-10-16T11:51:52;2.97;;;0.60;;
5137;SDS011;53959;53.626;11.410;2022-10-16T11:57:17;2.13;;;0.77;;
5137;SDS011;53959;53.626;11.410;2022-10-16T11:59:49;1.53;;;0.83;;
5137;SDS011;53959;53.626;11.410;2022-10-16T12:02:27;2.13;;;0.60;;
5137;SDS011;53959;53.626;11.410;2022-10-16T12:05:05;5.07;;;1.00;;
5137;SDS011;53959;53.626;11.410;2022-10-16T12:07:48;4.23;;;0.60;;
5137;SDS011;53959;53.626;11.410;2022-10-16T12:10:36;8.20;;;0.93;;
5137;SDS011;53959;53.626;11.410;2022-10-16T12:13:04;4.17;;;0.83;;
5137;SDS011;53959;53.626;11.410;2022-10-16T12:15:49;7.60;;;0.67;;
5137;SDS011;53959;53.626;11.410;2022-10-16T12:18:21;6.80;;;0.90;;
5137;SDS011;53959;53.626;11.410;2022-10-16T12:20:54;1.80;;;1.17;;
5137;SDS011;53959;53.626;11.410;2022-10-16T12:23:23;1.20;;;0.70;;
5137;SDS011;53959;53.626;11.410;2022-10-16T12:25:54;5.23;;;0.70;;
5137;SDS011;53959;53.626;11.410;2022-10-16T12:28:22;1.63;;;0.70;;
5137;SDS011;53959;53.626;11.410;2022-10-16T12:30:59;2.87;;;1.00;;
5137;SDS011;53959;53.626;11.410;2022-10-16T12:33:27;1.27;;;0.70;;
5137;SDS011;53959;53.626;11.410;2022-10-16T12:35:54;1.00;;;0.57;;
5137;SDS011;53959;53.626;11.410;2022-10-16T12:38:25;4.43;;;1.17;;
5137;SDS011;53959;53.626;11.410;2022-10-16T12:43:24;2.10;;;1.47;;
5137;SDS011;53959;53.626;11.410;2022-10-16T12:46:05;1.17;;;0.50;;
5137;SDS011;53959;53.626;11.410;2022-10-16T12:49:04;0.97;;;0.40;;
5137;SDS011;53959;53.626;11.410;2022-10-16T12:51:39;2.60;;;0.87;;
5137;SDS011;53959;53.626;11.410;2022-10-16T12:59:12;1.93;;;0.90;;
5137;SDS011;53959;53.626;11.410;2022-10-16T13:01:51;3.50;;;0.83;;
5137;SDS011;53959;53.626;11.410;2022-10-16T13:04:43;3.60;;;1.07;;
5137;SDS011;53959;53.626;11.410;2022-10-16T13:07:35;2.20;;;0.73;;
5137;SDS011;53959;53.626;11.410;2022-10-16T13:10:25;4.83;;;1.10;;
5137;SDS011;53959;53.626;11.410;2022-10-16T13:13:01;1.00;;;0.90;;
5137;SDS011;53959;53.626;11.410;2022-10-16T13:18:29;3.63;;;0.93;;
5137;SDS011;53959;53.626;11.410;2022-10-16T13:21:19;3.50;;;0.90;;
5137;SDS011;53959;53.626;11.410;2022-10-16T13:28:59;1.30;;;0.70;;
5137;SDS011;53959;53.626;11.410;2022-10-16T13:31:26;4.13;;;1.10;;
5137;SDS011;53959;53.626;11.410;2022-10-16T13:33:52;3.53;;;0.53;;
5137;SDS011;53959;53.626;11.410;2022-10-16T13:39:13;1.40;;;0.87;;
5137;SDS011;53959;53.626;11.410;2022-10-16T13:41:42;0.90;;;0.50;;
5137;SDS011;53959;53.626;11.410;2022-10-16T13:44:11;2.60;;;0.60;;
5137;SDS011;53959;53.626;11.410;2022-10-16T13:46:40;2.80;;;0.60;;
5137;SDS011;53959;53.626;11.410;2022-10-16T13:49:11;5.73;;;0.80;;
5137;SDS011;53959;53.626;11.410;2022-10-16T13:51:41;4.10;;;0.90;;
5137;SDS011;53959;53.626;11.410;2022-10-16T13:54:22;1.07;;;0.70;;
5137;SDS011;53959;53.626;11.410;2022-10-16T13:56:49;4.73;;;0.93;;
5137;SDS011;53959;53.626;11.410;2022-10-16T13:59:24;1.77;;;1.00;;
5137;SDS011;53959;53.626;11.410;2022-10-16T14:01:55;4.30;;;0.90;;
5137;SDS011;53959;53.626;11.410;2022-10-16T14:04:22;2.60;;;1.00;;
5137;SDS011;53959;53.626;11.410;2022-10-16T14:06:50;0.67;;;0.67;;
5137;SDS011;53959;53.626;11.410;2022-10-16T14:09:24;4.23;;;0.80;;
5137;SDS011;53959;53.626;11.410;2022-10-16T14:11:53;2.77;;;0.90;;
5137;SDS011;53959;53.626;11.410;2022-10-16T14:14:23;0.70;;;0.70;;
5137;SDS011;53959;53.626;11.410;2022-10-16T14:16:51;2.17;;;1.20;;
5137;SDS011;53959;53.626;11.410;2022-10-16T14:19:18;3.70;;;1.40;;
5137;SDS011;53959;53.626;11.410;2022-10-16T14:21:52;2.77;;;1.03;;
5137;SDS011;53959;53.626;11.410;2022-10-16T14:26:49;7.47;;;1.07;;
5137;SDS011;53959;53.626;11.410;2022-10-16T14:29:18;5.40;;;1.20;;
5137;SDS011;53959;53.626;11.410;2022-10-16T14:34:33;1.20;;;0.60;;
5137;SDS011;53959;53.626;11.410;2022-10-16T14:37:01;3.23;;;0.60;;
5137;SDS011;53959;53.626;11.410;2022-10-16T14:39:33;1.10;;;0.90;;
5137;SDS011;53959;53.626;11.410;2022-10-16T14:42:00;4.53;;;0.90;;
5137;SDS011;53959;53.626;11.410;2022-10-16T14:44:27;5.80;;;1.10;;
5137;SDS011;53959;53.626;11.410;2022-10-16T14:46:56;1.90;;;0.80;;
5137;SDS011;53959;53.626;11.410;2022-10-16T14:49:22;2.67;;;1.13;;
5137;SDS011;53959;53.626;11.410;2022-10-16T14:51:48;2.50;;;0.70;;
5137;SDS011;53959;53.626;11.410;2022-10-16T14:54:15;4.60;;;0.90;;
5137;SDS011;53959;53.626;11.410;2022-10-16T15:01:52;6.83;;;0.93;;
5137;SDS011;53959;53.626;11.410;2022-10-16T15:04:18;1.37;;;0.90;;
5137;SDS011;53959;53.626;11.410;2022-10-16T15:06:44;6.50;;;1.00;;
5137;SDS011;53959;53.626;11.410;2022-10-16T15:09:09;2.83;;;1.00;;
5137;SDS011;53959;53.626;11.410;2022-10-16T15:11:35;3.80;;;0.60;;
5137;SDS011;53959;53.626;11.410;2022-10-16T15:14:01;4.40;;;0.93;;
5137;SDS011;53959;53.626;11.410;2022-10-16T15:16:28;1.53;;;0.90;;
5137;SDS011;53959;53.626;11.410;2022-10-16T15:18:54;3.43;;;1.00;;
5137;SDS011;53959;53.626;11.410;2022-10-16T15:21:29;2.30;;;1.07;;
5137;SDS011;53959;53.626;11.410;2022-10-16T15:23:57;3.30;;;1.07;;
5137;SDS011;53959;53.626;11.410;2022-10-16T15:26:27;5.90;;;0.87;;
5137;SDS011;53959;53.626;11.410;2022-10-16T15:28:54;2.70;;;0.90;;
5137;SDS011;53959;53.626;11.410;2022-10-16T15:31:19;3.63;;;0.90;;
5137;SDS011;53959;53.626;11.410;2022-10-16T15:33:48;3.10;;;1.10;;
5137;SDS011;53959;53.626;11.410;2022-10-16T15:36:24;2.70;;;1.07;;
5137;SDS011;53959;53.626;11.410;2022-10-16T15:38:53;3.97;;;1.00;;
5137;SDS011;53959;53.626;11.410;2022-10-16T15:41:20;10.37;;;2.33;;
5137;SDS011;53959;53.626;11.410;2022-10-16T15:43:47;5.80;;;1.07;;
5137;SDS011;53959;53.626;11.410;2022-10-16T15:46:14;2.77;;;1.50;;
5137;SDS011;53959;53.626;11.410;2022-10-16T15:48:41;6.63;;;2.10;;
5137;SDS011;53959;53.626;11.410;2022-10-16T15:51:08;4.40;;;2.20;;
5137;SDS011;53959;53.626;11.410;2022-10-16T15:53:34;13.13;;;6.10;;
5137;SDS011;53959;53.626;11.410;2022-10-16T15:56:05;3.27;;;2.97;;
5137;SDS011;53959;53.626;11.410;2022-10-16T15:58:31;10.83;;;2.30;;
5137;SDS011;53959;53.626;11.410;2022-10-16T16:00:57;6.00;;;5.60;;
5137;SDS011;53959;53.626;11.410;2022-10-16T16:03:26;10.63;;;4.30;;
5137;SDS011;53959;53.626;11.410;2022-10-16T16:05:52;5.97;;;2.73;;
5137;SDS011;53959;53.626;11.410;2022-10-16T16:08:18;5.63;;;2.17;;
5137;SDS011;53959;53.626;11.410;2022-10-16T16:10:43;4.20;;;1.10;;
5137;SDS011;53959;53.626;11.410;2022-10-16T16:13:09;6.67;;;1.40;;
5137;SDS011;53959;53.626;11.410;2022-10-16T16:15:37;9.40;;;1.57;;
5137;SDS011;53959;53.626;11.410;2022-10-16T16:18:05;3.03;;;0.80;;
5137;SDS011;53959;53.626;11.410;2022-10-16T16:20:30;6.93;;;1.30;;
5137;SDS011;53959;53.626;11.410;2022-10-16T16:22:56;2.20;;;1.60;;
5137;SDS011;53959;53.626;11.410;2022-10-16T16:25:22;5.70;;;1.53;;
5137;SDS011;53959;53.626;11.410;2022-10-16T16:27:47;2.20;;;1.70;;
5137;SDS011;53959;53.626;11.410;2022-10-16T16:30:13;2.27;;;2.07;;
5137;SDS011;53959;53.626;11.410;2022-10-16T16:32:38;4.20;;;2.00;;
5137;SDS011;53959;53.626;11.410;2022-10-16T16:35:04;6.60;;;3.37;;
5137;SDS011;53959;53.626;11.410;2022-10-16T16:37:30;5.73;;;3.27;;